createdAt,value
2018-08-27T00:01:04.931Z,15.74
2018-08-27T00:03:33.288Z,15.76
2018-08-27T00:06:01.641Z,15.75
2018-08-27T00:08:29.989Z,15.73
2018-08-27T00:10:58.356Z,15.64
2018-08-27T00:13:26.727Z,15.66
2018-08-27T00:15:55.081Z,15.62
2018-08-27T00:18:23.470Z,15.68
2018-08-27T00:20:51.938Z,15.67
2018-08-27T00:23:20.296Z,15.69
2018-08-27T00:25:48.644Z,15.68
2018-08-27T00:28:17.015Z,15.66
2018-08-27T00:30:45.380Z,15.61
2018-08-27T00:33:13.734Z,15.59
2018-08-27T00:35:42.084Z,15.57
2018-08-27T00:38:10.433Z,15.52
2018-08-27T00:40:38.777Z,15.54
2018-08-27T00:43:07.120Z,15.56
2018-08-27T00:45:35.464Z,15.48
2018-08-27T00:48:03.812Z,15.48
2018-08-27T00:50:32.181Z,15.42
2018-08-27T00:53:00.568Z,15.43
2018-08-27T00:55:28.912Z,15.37
2018-08-27T00:57:57.275Z,15.39
2018-08-27T01:00:25.670Z,15.38
2018-08-27T01:02:54.017Z,15.36
2018-08-27T01:05:22.367Z,15.31
2018-08-27T01:07:50.729Z,15.31
2018-08-27T01:10:19.084Z,15.23
2018-08-27T01:12:47.414Z,15.20
2018-08-27T01:15:15.767Z,15.20
2018-08-27T01:17:44.123Z,15.18
2018-08-27T01:20:12.465Z,15.13
2018-08-27T01:22:40.890Z,15.15
2018-08-27T01:25:09.256Z,15.00
2018-08-27T01:27:37.604Z,14.98
2018-08-27T01:30:05.998Z,15.01
2018-08-27T01:32:34.322Z,14.89
2018-08-27T01:35:02.698Z,14.94
2018-08-27T01:37:31.057Z,14.86
2018-08-27T01:39:59.443Z,14.79
2018-08-27T01:42:27.775Z,14.74
2018-08-27T01:44:57.219Z,14.63
2018-08-27T01:47:25.572Z,14.68
2018-08-27T01:49:53.925Z,14.63
2018-08-27T01:52:22.263Z,14.64
2018-08-27T01:54:50.623Z,14.56
2018-08-27T01:57:19.003Z,14.57
2018-08-27T01:59:47.318Z,14.60
2018-08-27T02:02:15.698Z,14.58
2018-08-27T02:04:44.073Z,14.51
2018-08-27T02:07:12.451Z,14.52
2018-08-27T02:09:40.790Z,14.53
2018-08-27T02:12:09.132Z,14.41
2018-08-27T02:14:37.538Z,14.38
2018-08-27T02:17:05.902Z,14.43
2018-08-27T02:19:34.249Z,14.37
2018-08-27T02:22:02.592Z,14.38
2018-08-27T02:24:31.001Z,14.36
2018-08-27T02:26:59.349Z,14.31
2018-08-27T02:29:27.707Z,14.27
2018-08-27T02:31:56.035Z,14.26
2018-08-27T02:34:24.390Z,14.25
2018-08-27T02:36:52.746Z,14.21
2018-08-27T02:39:21.161Z,14.22
2018-08-27T02:41:50.234Z,14.18
2018-08-27T02:44:18.580Z,14.17
2018-08-27T02:46:46.930Z,14.21
2018-08-27T02:49:15.290Z,14.18
2018-08-27T02:51:43.670Z,14.21
2018-08-27T02:54:12.027Z,14.21
2018-08-27T02:56:40.372Z,14.23
2018-08-27T02:59:08.723Z,14.22
2018-08-27T03:01:37.084Z,14.21
2018-08-27T03:04:05.441Z,14.19
2018-08-27T03:06:33.819Z,14.20
2018-08-27T03:09:02.944Z,14.21
2018-08-27T03:11:31.296Z,14.16
2018-08-27T03:13:59.655Z,14.17
2018-08-27T03:16:28.053Z,14.16
2018-08-27T03:18:56.399Z,14.14
2018-08-27T03:21:24.769Z,14.13
2018-08-27T03:23:53.102Z,14.08
2018-08-27T03:26:21.482Z,14.10
2018-08-27T03:28:49.828Z,14.02
2018-08-27T03:31:18.412Z,14.03
2018-08-27T03:33:46.850Z,13.98
2018-08-27T03:36:15.206Z,13.98
2018-08-27T03:38:43.591Z,13.91
2018-08-27T03:41:11.931Z,13.88
2018-08-27T03:43:40.304Z,13.95
2018-08-27T03:46:08.684Z,13.83
2018-08-27T03:48:37.129Z,13.83
2018-08-27T03:51:05.605Z,13.85
2018-08-27T03:53:34.178Z,13.75
2018-08-27T03:56:02.580Z,13.80
2018-08-27T03:58:30.926Z,13.74
2018-08-27T04:00:59.269Z,13.70
2018-08-27T04:03:27.648Z,13.72
2018-08-27T04:05:55.997Z,13.69
2018-08-27T04:08:24.363Z,13.68
2018-08-27T04:10:52.885Z,13.66
2018-08-27T04:13:21.268Z,13.62
2018-08-27T04:15:49.645Z,13.64
2018-08-27T04:18:18.024Z,13.61
2018-08-27T04:20:46.387Z,13.55
2018-08-27T04:23:14.762Z,13.54
2018-08-27T04:25:43.104Z,13.50
2018-08-27T04:28:11.907Z,13.47
2018-08-27T04:30:40.286Z,13.52
2018-08-27T04:33:08.615Z,13.56
2018-08-27T04:35:36.985Z,13.49
2018-08-27T04:38:05.730Z,13.52
2018-08-27T04:40:34.060Z,13.49
2018-08-27T04:43:02.446Z,13.50
2018-08-27T04:45:30.818Z,13.48
2018-08-27T04:47:59.187Z,13.56
2018-08-27T04:50:27.568Z,13.58
2018-08-27T04:52:55.963Z,13.63
2018-08-27T04:55:24.307Z,13.61
2018-08-27T04:57:52.685Z,13.59
2018-08-27T05:00:41.046Z,13.66
2018-08-27T05:03:10.442Z,13.69
2018-08-27T05:05:38.777Z,13.70
2018-08-27T05:08:07.316Z,13.78
2018-08-27T05:10:36.101Z,13.80
2018-08-27T05:13:04.470Z,13.87
2018-08-27T05:15:33.268Z,13.89
2018-08-27T05:18:01.596Z,13.89
2018-08-27T05:20:29.973Z,13.93
2018-08-27T05:22:58.336Z,13.97
2018-08-27T05:25:26.700Z,14.00
2018-08-27T05:27:55.214Z,14.03
2018-08-27T05:30:23.576Z,14.04
2018-08-27T05:32:51.941Z,14.09
2018-08-27T05:35:20.294Z,14.08
2018-08-27T05:37:48.680Z,14.12
2018-08-27T05:40:17.039Z,14.10
2018-08-27T05:42:45.451Z,14.13
2018-08-27T05:45:13.820Z,14.18
2018-08-27T05:47:42.852Z,14.25
2018-08-27T05:50:11.272Z,14.39
2018-08-27T05:52:39.744Z,14.48
2018-08-27T05:55:08.140Z,14.62
2018-08-27T05:57:36.532Z,14.70
2018-08-27T06:00:04.961Z,14.74
2018-08-27T06:02:33.528Z,14.83
2018-08-27T06:05:01.887Z,14.89
2018-08-27T06:07:30.273Z,15.04
2018-08-27T06:09:58.736Z,15.22
2018-08-27T06:12:27.064Z,15.27
2018-08-27T06:14:55.441Z,15.34
2018-08-27T06:17:23.810Z,15.41
2018-08-27T06:19:52.195Z,15.48
2018-08-27T06:22:20.591Z,15.51
2018-08-27T06:24:48.959Z,15.65
2018-08-27T06:27:17.460Z,15.87
2018-08-27T06:29:45.810Z,15.94
2018-08-27T06:32:14.770Z,16.10
2018-08-27T06:34:43.212Z,16.25
2018-08-27T06:37:11.561Z,16.29
2018-08-27T06:39:39.940Z,16.34
2018-08-27T06:42:08.330Z,16.43
2018-08-27T06:44:36.772Z,16.41
2018-08-27T06:47:05.663Z,16.56
2018-08-27T06:49:34.073Z,16.66
2018-08-27T06:52:03.241Z,16.67
2018-08-27T06:54:31.721Z,16.81
2018-08-27T06:57:00.084Z,16.92
2018-08-27T06:59:28.520Z,16.92
2018-08-27T07:01:56.897Z,17.02
2018-08-27T07:04:25.412Z,17.08
2018-08-27T07:06:54.130Z,17.22
2018-08-27T07:09:22.576Z,17.39
2018-08-27T07:11:51.045Z,17.59
2018-08-27T07:14:19.401Z,17.60
2018-08-27T07:16:47.812Z,17.70
2018-08-27T07:19:16.186Z,17.75
2018-08-27T07:21:44.813Z,17.74
2018-08-27T07:24:13.908Z,17.86
2018-08-27T07:26:42.289Z,17.82
2018-08-27T07:29:10.726Z,17.81
2018-08-27T07:31:39.105Z,17.95
2018-08-27T07:34:07.527Z,18.02
2018-08-27T07:36:35.965Z,18.10
2018-08-27T07:39:05.479Z,18.17
2018-08-27T07:41:33.996Z,18.29
2018-08-27T07:44:02.443Z,18.64
2018-08-27T07:46:31.112Z,19.05
2018-08-27T07:48:59.509Z,19.21
2018-08-27T07:51:27.951Z,19.27
2018-08-27T07:53:56.332Z,19.73
2018-08-27T07:56:24.847Z,19.87
2018-08-27T07:58:53.396Z,19.86
2018-08-27T08:01:22.080Z,20.05
2018-08-27T08:03:50.499Z,20.10
2018-08-27T08:06:18.917Z,20.48
2018-08-27T08:08:47.461Z,20.62
2018-08-27T08:11:15.909Z,21.14
2018-08-27T08:13:44.750Z,21.58
2018-08-27T08:16:13.146Z,22.04
2018-08-27T08:18:41.590Z,22.64
2018-08-27T08:21:09.946Z,22.56
2018-08-27T08:23:39.478Z,22.94
2018-08-27T08:26:07.876Z,23.11
2018-08-27T08:28:36.275Z,23.71
2018-08-27T08:31:04.688Z,23.61
2018-08-27T08:33:33.063Z,23.30
2018-08-27T08:36:01.470Z,23.49
2018-08-27T08:38:29.854Z,23.75
2018-08-27T08:40:58.200Z,23.32
2018-08-27T08:43:26.715Z,23.29
2018-08-27T08:45:55.085Z,23.17
2018-08-27T08:48:23.440Z,23.76
2018-08-27T08:50:51.782Z,23.96
2018-08-27T08:53:20.224Z,24.04
2018-08-27T08:55:48.611Z,23.50
2018-08-27T08:58:16.984Z,23.57
2018-08-27T09:00:45.372Z,23.60
2018-08-27T09:03:14.167Z,23.28
2018-08-27T09:05:42.539Z,22.90
2018-08-27T09:08:11.044Z,22.68
2018-08-27T09:10:39.328Z,22.79
2018-08-27T09:13:08.355Z,22.57
2018-08-27T09:22:37.433Z,21.87
2018-08-27T09:25:05.808Z,21.73
2018-08-27T09:27:34.539Z,21.69
2018-08-27T09:30:02.891Z,21.74
2018-08-27T09:32:31.804Z,21.64
2018-08-27T09:35:00.220Z,21.63
2018-08-27T09:37:28.649Z,21.55
2018-08-27T09:39:57.128Z,21.48
2018-08-27T09:42:25.493Z,21.56
2018-08-27T09:44:53.883Z,21.56
2018-08-27T09:47:22.256Z,21.54
2018-08-27T09:49:50.590Z,21.51
2018-08-27T09:52:18.975Z,21.43
2018-08-27T09:54:47.360Z,21.39
2018-08-27T09:57:15.697Z,21.39
2018-08-27T09:59:44.083Z,21.48
2018-08-27T10:02:12.564Z,21.37
2018-08-27T10:04:41.547Z,21.42
2018-08-27T10:07:10.069Z,21.62
2018-08-27T10:09:38.416Z,21.73
2018-08-27T10:12:06.812Z,21.65
2018-08-27T10:14:35.174Z,21.67
2018-08-27T10:17:03.586Z,21.64
2018-08-27T10:19:31.931Z,21.63
2018-08-27T10:22:00.381Z,21.52
2018-08-27T10:24:28.751Z,21.50
2018-08-27T10:26:57.142Z,21.27
2018-08-27T10:29:25.482Z,21.31
2018-08-27T10:31:53.864Z,21.43
2018-08-27T10:34:22.241Z,21.43
2018-08-27T10:36:50.655Z,21.71
2018-08-27T10:39:19.040Z,21.76
2018-08-27T10:41:47.412Z,21.65
2018-08-27T10:44:15.756Z,21.68
2018-08-27T10:46:44.196Z,21.71
2018-08-27T10:49:12.551Z,21.58
2018-08-27T10:51:40.895Z,21.61
2018-08-27T10:54:09.264Z,21.58
2018-08-27T10:56:37.649Z,21.50
2018-08-27T10:59:06.052Z,21.43
2018-08-27T11:01:34.482Z,21.38
2018-08-27T11:04:03.159Z,21.41
2018-08-27T11:06:31.579Z,21.38
2018-08-27T11:08:59.956Z,21.46
2018-08-27T11:11:28.917Z,21.41
2018-08-27T11:13:57.364Z,21.40
2018-08-27T11:16:25.714Z,21.41
2018-08-27T11:18:54.188Z,21.49
2018-08-27T11:21:22.573Z,21.49
2018-08-27T11:23:51.001Z,21.48
2018-08-27T11:26:19.431Z,21.42
2018-08-27T11:28:47.808Z,21.50
2018-08-27T11:31:16.189Z,21.52
2018-08-27T11:33:44.568Z,21.57
2018-08-27T11:36:12.950Z,21.56
2018-08-27T11:38:41.326Z,21.60
2018-08-27T11:41:10.111Z,21.67
2018-08-27T11:43:38.496Z,21.76
2018-08-27T11:46:07.749Z,21.79
2018-08-27T11:48:36.122Z,21.79
2018-08-27T11:51:05.404Z,21.90
2018-08-27T11:53:34.302Z,21.86
2018-08-27T11:56:02.745Z,21.99
2018-08-27T11:58:31.210Z,22.06
2018-08-27T12:01:05.464Z,22.03
2018-08-27T12:03:33.853Z,22.00
2018-08-27T12:06:02.251Z,21.98
2018-08-27T12:08:30.613Z,21.90
2018-08-27T12:10:59.014Z,21.85
2018-08-27T12:13:27.496Z,21.82
2018-08-27T12:15:55.954Z,21.77
2018-08-27T12:18:24.307Z,21.86
2018-08-27T12:20:52.633Z,21.83
2018-08-27T12:23:21.124Z,21.75
2018-08-27T12:25:49.541Z,21.76
2018-08-27T12:28:18.595Z,21.82
2018-08-27T12:30:47.068Z,21.82
2018-08-27T12:33:15.436Z,21.86
2018-08-27T12:35:43.828Z,21.76
2018-08-27T12:38:12.188Z,21.80
2018-08-27T12:40:40.587Z,21.80
2018-08-27T12:43:08.971Z,21.76
2018-08-27T12:45:37.355Z,21.84
2018-08-27T12:48:05.825Z,21.84
2018-08-27T12:50:34.183Z,21.77
2018-08-27T12:53:02.669Z,21.82
2018-08-27T12:55:31.044Z,21.76
2018-08-27T12:57:59.422Z,21.76
2018-08-27T13:00:27.876Z,21.77
2018-08-27T13:02:56.248Z,21.79
2018-08-27T13:05:24.595Z,21.77
2018-08-27T13:07:53.069Z,21.76
2018-08-27T13:10:21.390Z,21.79
2018-08-27T13:12:50.107Z,21.78
2018-08-27T13:15:18.483Z,21.88
2018-08-27T13:17:46.819Z,21.94
2018-08-27T13:20:15.223Z,22.01
2018-08-27T13:22:43.550Z,22.04
2018-08-27T13:25:11.919Z,22.02
2018-08-27T13:27:40.278Z,22.06
2018-08-27T13:30:09.145Z,22.08
2018-08-27T13:32:37.544Z,22.13
2018-08-27T13:35:05.955Z,22.11
2018-08-27T13:37:34.328Z,22.13
2018-08-27T13:40:02.950Z,22.15
2018-08-27T13:42:31.274Z,22.16
2018-08-27T13:44:59.636Z,22.15
2018-08-27T13:47:27.989Z,21.99
2018-08-27T13:49:56.348Z,22.02
2018-08-27T13:52:24.784Z,21.98
2018-08-27T13:54:53.122Z,21.97
2018-08-27T13:57:21.673Z,21.99
2018-08-27T13:59:50.115Z,21.93
2018-08-27T14:02:18.549Z,21.94
2018-08-27T14:04:46.923Z,21.89
2018-08-27T14:07:15.296Z,21.93
2018-08-27T14:09:43.679Z,21.96
2018-08-27T14:12:12.124Z,21.94
2018-08-27T14:14:40.512Z,21.97
2018-08-27T14:17:09.132Z,21.88
2018-08-27T14:19:37.579Z,21.87
2018-08-27T14:22:05.959Z,21.85
2018-08-27T14:24:34.329Z,21.80
2018-08-27T14:27:03.957Z,21.75
2018-08-27T14:29:32.331Z,21.74
2018-08-27T14:32:00.811Z,21.79
2018-08-27T14:34:29.265Z,21.84
2018-08-27T14:36:57.631Z,21.89
2018-08-27T14:39:26.036Z,21.93
2018-08-27T14:41:54.372Z,21.94
2018-08-27T14:44:22.781Z,21.90
2018-08-27T14:46:51.173Z,21.91
2018-08-27T14:49:19.524Z,21.93
2018-08-27T14:51:47.881Z,21.90
2018-08-27T14:54:16.334Z,21.95
2018-08-27T14:56:44.681Z,21.96
2018-08-27T14:59:13.024Z,22.01
2018-08-27T15:01:41.409Z,21.98
2018-08-27T15:04:09.775Z,21.97
2018-08-27T15:06:38.192Z,22.02
2018-08-27T15:09:07.293Z,22.01
2018-08-27T15:11:35.640Z,22.04
2018-08-27T15:14:04.095Z,22.09
2018-08-27T15:16:32.523Z,22.08
2018-08-27T15:19:01.024Z,22.10
2018-08-27T15:21:30.173Z,22.08
2018-08-27T15:23:58.592Z,22.07
2018-08-27T15:26:26.967Z,22.10
2018-08-27T15:28:55.389Z,22.12
2018-08-27T15:31:23.781Z,22.13
2018-08-27T15:33:52.214Z,22.13
2018-08-27T15:36:20.629Z,22.14
2018-08-27T15:38:49.088Z,22.15
2018-08-27T15:41:17.520Z,22.14
2018-08-27T15:43:46.195Z,22.18
2018-08-27T15:46:19.973Z,22.15
2018-08-27T15:48:48.382Z,22.13
2018-08-27T15:51:16.829Z,22.15
2018-08-27T15:53:45.180Z,22.16
2018-08-27T15:56:13.629Z,22.14
2018-08-27T15:58:41.916Z,22.15
2018-08-27T16:01:12.931Z,22.11
2018-08-27T16:03:42.442Z,22.09
2018-08-27T16:06:11.837Z,22.10
2018-08-27T16:08:40.224Z,22.09
2018-08-27T16:11:08.675Z,22.09
2018-08-27T16:13:37.845Z,22.06
2018-08-27T16:16:06.893Z,22.05
2018-08-27T16:18:35.600Z,22.01
2018-08-27T16:21:04.006Z,22.02
2018-08-27T16:23:32.428Z,22.03
2018-08-27T16:26:00.811Z,22.02
2018-08-27T16:28:29.408Z,21.99
2018-08-27T16:30:57.889Z,21.96
2018-08-27T16:33:26.331Z,21.93
2018-08-27T16:35:54.741Z,21.90
2018-08-27T16:38:23.194Z,21.89
2018-08-27T16:40:51.589Z,21.87
2018-08-27T16:43:20.441Z,21.83
2018-08-27T16:45:48.961Z,21.79
2018-08-27T16:48:17.404Z,21.77
2018-08-27T16:50:45.804Z,21.74
2018-08-27T16:53:14.416Z,21.72
2018-08-27T16:55:42.791Z,21.69
2018-08-27T16:58:11.183Z,21.68
2018-08-27T17:00:39.605Z,21.67
2018-08-27T17:03:07.984Z,21.64
2018-08-27T17:05:36.319Z,21.61
2018-08-27T17:08:04.703Z,21.57
2018-08-27T17:10:33.081Z,21.51
2018-08-27T17:13:01.481Z,21.51
2018-08-27T17:15:29.846Z,21.49
2018-08-27T17:17:58.200Z,21.49
2018-08-27T17:20:26.577Z,21.45
2018-08-27T17:22:54.960Z,21.46
2018-08-27T17:25:23.300Z,21.46
2018-08-27T17:27:51.627Z,21.42
2018-08-27T17:30:19.959Z,21.42
2018-08-27T17:32:48.416Z,21.39
2018-08-27T17:35:16.960Z,21.37
2018-08-27T17:37:45.349Z,21.34
2018-08-27T17:40:13.731Z,21.34
2018-08-27T17:42:42.125Z,21.36
2018-08-27T17:45:10.587Z,21.31
2018-08-27T17:47:38.902Z,21.29
2018-08-27T17:50:07.831Z,21.28
2018-08-27T17:52:36.153Z,21.25
2018-08-27T17:55:04.625Z,21.24
2018-08-27T17:57:32.997Z,21.23
2018-08-27T18:00:01.352Z,21.20
2018-08-27T18:02:29.856Z,21.19
2018-08-27T18:04:58.810Z,21.16
2018-08-27T18:07:27.149Z,21.13
2018-08-27T18:09:55.480Z,21.10
2018-08-27T18:12:23.895Z,21.07
2018-08-27T18:14:52.210Z,21.04
2018-08-27T18:17:20.585Z,20.98
2018-08-27T18:19:48.924Z,20.98
2018-08-27T18:22:17.272Z,20.92
2018-08-27T18:24:46.131Z,20.89
2018-08-27T18:27:14.541Z,20.86
2018-08-27T18:29:43.145Z,20.82
2018-08-27T18:32:11.641Z,20.81
2018-08-27T18:34:40.394Z,20.79
2018-08-27T18:37:09.050Z,20.73
2018-08-27T18:39:37.394Z,20.70
2018-08-27T18:42:05.768Z,20.65
2018-08-27T18:44:34.139Z,20.62
2018-08-27T18:47:03.103Z,20.59
2018-08-27T18:49:32.556Z,20.57
2018-08-27T18:52:00.945Z,20.50
2018-08-27T18:54:29.303Z,20.45
2018-08-27T18:56:57.650Z,20.44
2018-08-27T18:59:25.999Z,20.38
2018-08-27T19:01:54.470Z,20.35
2018-08-27T19:04:22.824Z,20.30
2018-08-27T19:06:51.173Z,20.27
2018-08-27T19:09:19.516Z,20.22
2018-08-27T19:11:47.878Z,20.20
2018-08-27T19:14:16.253Z,20.15
2018-08-27T19:16:44.579Z,20.14
2018-08-27T19:19:12.965Z,20.11
2018-08-27T19:21:41.334Z,20.10
2018-08-27T19:24:09.901Z,20.07
2018-08-27T19:26:38.304Z,20.06
2018-08-27T19:29:06.720Z,20.04
2018-08-27T19:31:35.048Z,20.04
2018-08-27T19:34:03.542Z,20.03
2018-08-27T19:36:31.988Z,20.02
2018-08-27T19:39:00.305Z,20.01
2018-08-27T19:41:28.632Z,20.02
2018-08-27T19:43:56.997Z,20.01
2018-08-27T19:46:25.405Z,20.01
2018-08-27T19:48:53.750Z,20.00
2018-08-27T19:51:22.160Z,19.94
2018-08-27T19:53:50.529Z,19.95
2018-08-27T19:56:18.896Z,19.93
2018-08-27T19:58:47.272Z,19.90
2018-08-27T20:01:15.737Z,19.89
2018-08-27T20:03:44.193Z,19.85
2018-08-27T20:06:12.721Z,19.81
2018-08-27T20:08:41.081Z,19.80
2018-08-27T20:11:09.446Z,19.82
2018-08-27T20:13:37.773Z,19.86
2018-08-27T20:16:06.605Z,19.87
2018-08-27T20:18:34.920Z,19.84
2018-08-27T20:21:03.379Z,19.81
2018-08-27T20:23:31.741Z,19.82
2018-08-27T20:26:00.256Z,19.82
2018-08-27T20:28:28.623Z,19.81
2018-08-27T20:30:56.974Z,19.79
2018-08-27T20:33:25.310Z,19.77
2018-08-27T20:35:53.649Z,19.76
2018-08-27T20:38:21.969Z,19.72
2018-08-27T20:40:50.292Z,19.71
2018-08-27T20:43:18.638Z,19.67
2018-08-27T20:45:46.992Z,19.62
2018-08-27T20:48:15.347Z,19.60
2018-08-27T20:50:43.755Z,19.52
2018-08-27T20:53:12.101Z,19.49
2018-08-27T20:55:40.419Z,19.48
2018-08-27T20:58:08.756Z,19.44
2018-08-27T21:00:37.085Z,19.43
2018-08-27T21:03:05.473Z,19.41
2018-08-27T21:05:33.775Z,19.42
2018-08-27T21:08:02.121Z,19.40
2018-08-27T21:10:30.565Z,19.35
2018-08-27T21:12:58.865Z,19.32
2018-08-27T21:15:27.190Z,19.29
2018-08-27T21:17:55.538Z,19.23
2018-08-27T21:20:24.468Z,19.23
2018-08-27T21:22:52.806Z,19.16
2018-08-27T21:25:21.169Z,19.11
2018-08-27T21:27:50.543Z,19.10
2018-08-27T21:30:20.195Z,19.09
2018-08-27T21:32:48.542Z,18.99
2018-08-27T21:35:16.904Z,19.06
2018-08-27T21:37:45.249Z,18.97
2018-08-27T21:40:14.004Z,18.99
2018-08-27T21:42:42.339Z,18.96
2018-08-27T21:45:10.766Z,18.94
2018-08-27T21:47:39.096Z,18.93
2018-08-27T21:50:07.489Z,18.91
2018-08-27T21:52:35.809Z,18.93
2018-08-27T21:55:04.161Z,18.92
2018-08-27T21:57:32.508Z,18.88
2018-08-27T22:00:00.883Z,18.85
2018-08-27T22:02:34.376Z,18.82
2018-08-27T22:05:02.730Z,18.75
2018-08-27T22:07:31.071Z,18.76
2018-08-27T22:09:59.416Z,18.70
2018-08-27T22:12:27.760Z,18.69
2018-08-27T22:14:56.138Z,18.64
2018-08-27T22:17:25.682Z,18.63
2018-08-27T22:19:54.056Z,18.59
2018-08-27T22:22:22.399Z,18.60
2018-08-27T22:24:50.717Z,18.59
2018-08-27T22:27:19.055Z,18.53
2018-08-27T22:29:47.403Z,18.53
2018-08-27T22:32:15.751Z,18.47
2018-08-27T22:34:44.135Z,18.46
2018-08-27T22:37:12.460Z,18.48
2018-08-27T22:39:40.806Z,18.47
2018-08-27T22:42:09.140Z,18.45
2018-08-27T22:44:37.476Z,18.42
2018-08-27T22:47:08.194Z,18.42
2018-08-27T22:49:36.860Z,18.42
2018-08-27T22:52:05.520Z,18.39
2018-08-27T22:54:33.861Z,18.36
2018-08-27T22:57:02.236Z,18.35
2018-08-27T22:59:30.566Z,18.34
2018-08-27T23:01:58.935Z,18.34
2018-08-27T23:04:32.597Z,18.30
2018-08-27T23:07:00.926Z,18.27
2018-08-27T23:09:29.253Z,18.28
2018-08-27T23:11:57.705Z,18.27
2018-08-27T23:14:26.040Z,18.26
2018-08-27T23:16:54.360Z,18.23
2018-08-27T23:19:22.695Z,18.22
2018-08-27T23:21:51.027Z,18.17
2018-08-27T23:24:19.363Z,18.15
2018-08-27T23:26:47.698Z,18.14
2018-08-27T23:29:16.044Z,18.13
2018-08-27T23:31:44.398Z,18.13
2018-08-27T23:34:12.735Z,18.14
2018-08-27T23:36:41.097Z,18.14
2018-08-27T23:39:09.436Z,18.11
2018-08-27T23:41:37.801Z,18.10
2018-08-27T23:44:06.190Z,18.05
2018-08-27T23:46:34.531Z,18.08
2018-08-27T23:49:02.906Z,18.05
2018-08-27T23:51:31.768Z,18.03
2018-08-27T23:54:00.107Z,18.03
2018-08-27T23:56:28.424Z,18.00
2018-08-27T23:58:56.763Z,18.00
